< < Back
Terminal Aerodrome Forecast


Current Version              Previous Versions:   1  2  3  4  5  6  7  8  9  

Terminal Aerodrome Forecast

698
FTUS42 KFFC 290524
TAFPDK
TAF
KPDK 290524Z 2906/3006 00000KT P6SM BKN200
     FM291500 17005KT P6SM BKN200
     FM291800 19008KT P6SM BKN080
     FM292300 20004KT P6SM SCT025 BKN080
     FM300100 23003KT P6SM BKN025 OVC080=

Latest METAR

771
SAUS70 KWBC 291400 RRB
MTRPDK
METAR KPDK 291353Z 15003KT 7SM CLR 03/M02 A3030 RMK AO2 SLP273
T00331017


USA.gov is the U.S. government's official web portal to all federal, state and local government web resources and services.